sensor_id;sensor_type;location;lat;lon;timestamp;temperature;humidity
31975;DHT22;18500;43.618;1.474;2023-12-07T15:55:31;8.70;1.00
31975;DHT22;18500;43.618;1.474;2023-12-07T15:57:56;8.70;1.00
31975;DHT22;18500;43.618;1.474;2023-12-07T16:00:22;8.70;1.00
31975;DHT22;18500;43.618;1.474;2023-12-07T16:02:48;8.60;1.00
31975;DHT22;18500;43.618;1.474;2023-12-07T16:05:13;8.60;1.00
31975;DHT22;18500;43.618;1.474;2023-12-07T16:07:39;8.70;1.00
31975;DHT22;18500;43.618;1.474;2023-12-07T16:10:06;8.70;1.00
31975;DHT22;18500;43.618;1.474;2023-12-07T16:12:35;8.80;1.00
31975;DHT22;18500;43.618;1.474;2023-12-07T16:15:02;8.80;1.00
31975;DHT22;18500;43.618;1.474;2023-12-07T16:17:28;8.80;1.00
31975;DHT22;18500;43.618;1.474;2023-12-07T16:19:54;8.80;1.00
31975;DHT22;18500;43.618;1.474;2023-12-07T16:22:20;8.80;1.00
31975;DHT22;18500;43.618;1.474;2023-12-07T16:24:46;8.80;1.00
31975;DHT22;18500;43.618;1.474;2023-12-07T16:27:11;8.70;1.00
31975;DHT22;18500;43.618;1.474;2023-12-07T16:29:37;8.80;1.00
31975;DHT22;18500;43.618;1.474;2023-12-07T16:32:03;8.70;1.00
31975;DHT22;18500;43.618;1.474;2023-12-07T16:34:28;8.70;1.00
31975;DHT22;18500;43.618;1.474;2023-12-07T16:36:54;8.70;1.00
31975;DHT22;18500;43.618;1.474;2023-12-07T16:39:20;8.70;1.00
31975;DHT22;18500;43.618;1.474;2023-12-07T16:41:45;8.70;1.00
31975;DHT22;18500;43.618;1.474;2023-12-07T16:44:12;8.50;1.00
31975;DHT22;18500;43.618;1.474;2023-12-07T16:46:39;8.40;1.00
31975;DHT22;18500;43.618;1.474;2023-12-07T16:49:04;8.30;1.00
31975;DHT22;18500;43.618;1.474;2023-12-07T16:51:31;8.40;1.00
31975;DHT22;18500;43.618;1.474;2023-12-07T16:53:56;8.40;1.00
31975;DHT22;18500;43.618;1.474;2023-12-07T16:56:22;8.40;1.00
31975;DHT22;18500;43.618;1.474;2023-12-07T16:58:47;8.50;1.00
31975;DHT22;18500;43.618;1.474;2023-12-07T17:01:13;8.40;1.00
31975;DHT22;18500;43.618;1.474;2023-12-07T17:03:40;8.30;1.00
31975;DHT22;18500;43.618;1.474;2023-12-07T17:06:06;8.40;1.00
31975;DHT22;18500;43.618;1.474;2023-12-07T17:08:32;8.30;1.00
31975;DHT22;18500;43.618;1.474;2023-12-07T17:10:57;8.20;1.00
31975;DHT22;18500;43.618;1.474;2023-12-07T17:13:23;8.20;1.00
31975;DHT22;18500;43.618;1.474;2023-12-07T17:15:48;8.30;1.00
31975;DHT22;18500;43.618;1.474;2023-12-07T17:18:14;8.30;1.00
31975;DHT22;18500;43.618;1.474;2023-12-07T17:20:40;8.30;1.00
31975;DHT22;18500;43.618;1.474;2023-12-07T17:23:05;8.20;1.00
31975;DHT22;18500;43.618;1.474;2023-12-07T17:25:31;8.00;1.00
31975;DHT22;18500;43.618;1.474;2023-12-07T17:27:57;8.20;1.00
31975;DHT22;18500;43.618;1.474;2023-12-07T17:30:23;8.20;1.00
31975;DHT22;18500;43.618;1.474;2023-12-07T17:32:49;8.20;1.00
31975;DHT22;18500;43.618;1.474;2023-12-07T17:35:15;8.30;1.00
31975;DHT22;18500;43.618;1.474;2023-12-07T17:37:41;8.20;1.00
31975;DHT22;18500;43.618;1.474;2023-12-07T17:40:07;8.10;1.00
31975;DHT22;18500;43.618;1.474;2023-12-07T17:42:33;8.20;1.00
31975;DHT22;18500;43.618;1.474;2023-12-07T17:44:59;8.20;1.00
31975;DHT22;18500;43.618;1.474;2023-12-07T17:47:24;8.20;1.00
31975;DHT22;18500;43.618;1.474;2023-12-07T17:49:54;8.20;1.00
31975;DHT22;18500;43.618;1.474;2023-12-07T17:52:20;8.20;1.00
31975;DHT22;18500;43.618;1.474;2023-12-07T17:54:46;8.20;1.00
31975;DHT22;18500;43.618;1.474;2023-12-07T17:57:12;8.20;1.00
31975;DHT22;18500;43.618;1.474;2023-12-07T17:59:37;8.20;1.00
31975;DHT22;18500;43.618;1.474;2023-12-07T18:02:04;8.30;1.00
31975;DHT22;18500;43.618;1.474;2023-12-07T18:04:35;8.30;1.00
31975;DHT22;18500;43.618;1.474;2023-12-07T18:07:02;8.20;1.00
31975;DHT22;18500;43.618;1.474;2023-12-07T18:09:30;8.30;1.00
31975;DHT22;18500;43.618;1.474;2023-12-07T18:11:56;8.30;1.00
31975;DHT22;18500;43.618;1.474;2023-12-07T18:14:24;8.30;1.00
31975;DHT22;18500;43.618;1.474;2023-12-07T18:16:50;8.40;1.00
31975;DHT22;18500;43.618;1.474;2023-12-07T18:19:16;8.30;1.00
31975;DHT22;18500;43.618;1.474;2023-12-07T18:21:41;8.30;1.00
31975;DHT22;18500;43.618;1.474;2023-12-07T18:24:07;8.30;1.00
31975;DHT22;18500;43.618;1.474;2023-12-07T18:26:33;8.30;1.00
31975;DHT22;18500;43.618;1.474;2023-12-07T18:29:05;8.30;1.00
31975;DHT22;18500;43.618;1.474;2023-12-07T18:31:32;8.30;1.00
31975;DHT22;18500;43.618;1.474;2023-12-07T18:33:58;8.40;1.00
31975;DHT22;18500;43.618;1.474;2023-12-07T18:36:23;8.40;1.00
31975;DHT22;18500;43.618;1.474;2023-12-07T18:38:49;8.40;1.00
31975;DHT22;18500;43.618;1.474;2023-12-07T18:41:15;8.40;1.00
31975;DHT22;18500;43.618;1.474;2023-12-07T18:43:40;8.40;1.00
31975;DHT22;18500;43.618;1.474;2023-12-07T18:46:06;8.40;1.00
31975;DHT22;18500;43.618;1.474;2023-12-07T18:48:33;8.40;1.00
31975;DHT22;18500;43.618;1.474;2023-12-07T18:50:59;8.40;1.00
31975;DHT22;18500;43.618;1.474;2023-12-07T18:53:25;8.40;1.00
31975;DHT22;18500;43.618;1.474;2023-12-07T18:55:53;8.40;1.00
31975;DHT22;18500;43.618;1.474;2023-12-07T18:58:19;8.40;1.00
31975;DHT22;18500;43.618;1.474;2023-12-07T19:00:47;8.40;1.00
31975;DHT22;18500;43.618;1.474;2023-12-07T19:03:13;8.40;1.00
31975;DHT22;18500;43.618;1.474;2023-12-07T19:05:39;8.40;1.00
31975;DHT22;18500;43.618;1.474;2023-12-07T19:08:04;8.40;1.00
31975;DHT22;18500;43.618;1.474;2023-12-07T19:10:30;8.40;1.00
31975;DHT22;18500;43.618;1.474;2023-12-07T19:12:55;8.40;1.00
31975;DHT22;18500;43.618;1.474;2023-12-07T19:15:21;8.40;1.00
31975;DHT22;18500;43.618;1.474;2023-12-07T19:17:48;8.40;1.00
31975;DHT22;18500;43.618;1.474;2023-12-07T19:20:14;8.40;1.00
31975;DHT22;18500;43.618;1.474;2023-12-07T19:22:40;8.40;1.00
31975;DHT22;18500;43.618;1.474;2023-12-07T19:25:05;8.30;1.00
31975;DHT22;18500;43.618;1.474;2023-12-07T19:27:31;8.20;1.00
31975;DHT22;18500;43.618;1.474;2023-12-07T19:29:58;8.30;1.00
31975;DHT22;18500;43.618;1.474;2023-12-07T19:32:24;8.40;1.00
31975;DHT22;18500;43.618;1.474;2023-12-07T19:34:50;8.20;1.00
31975;DHT22;18500;43.618;1.474;2023-12-07T19:37:15;8.30;1.00
31975;DHT22;18500;43.618;1.474;2023-12-07T19:39:41;8.20;1.00
31975;DHT22;18500;43.618;1.474;2023-12-07T19:42:06;8.10;1.00
31975;DHT22;18500;43.618;1.474;2023-12-07T19:44:32;8.10;1.00
31975;DHT22;18500;43.618;1.474;2023-12-07T19:46:58;8.20;1.00
31975;DHT22;18500;43.618;1.474;2023-12-07T19:49:24;8.20;1.00
31975;DHT22;18500;43.618;1.474;2023-12-07T19:51:49;8.20;1.00
31975;DHT22;18500;43.618;1.474;2023-12-07T19:54:15;8.10;1.00
31975;DHT22;18500;43.618;1.474;2023-12-07T19:56:43;8.20;1.00
31975;DHT22;18500;43.618;1.474;2023-12-07T19:59:09;8.20;1.00
31975;DHT22;18500;43.618;1.474;2023-12-07T20:01:35;8.20;1.00
31975;DHT22;18500;43.618;1.474;2023-12-07T20:04:00;8.10;1.00
31975;DHT22;18500;43.618;1.474;2023-12-07T20:06:27;8.00;1.00
31975;DHT22;18500;43.618;1.474;2023-12-07T20:08:53;8.00;1.00
31975;DHT22;18500;43.618;1.474;2023-12-07T20:11:19;7.90;1.00
31975;DHT22;18500;43.618;1.474;2023-12-07T20:13:45;8.00;1.00
31975;DHT22;18500;43.618;1.474;2023-12-07T20:16:18;7.90;1.00
31975;DHT22;18500;43.618;1.474;2023-12-07T20:18:43;7.80;1.00
31975;DHT22;18500;43.618;1.474;2023-12-07T20:21:10;7.60;1.00
31975;DHT22;18500;43.618;1.474;2023-12-07T20:23:36;7.70;1.00
31975;DHT22;18500;43.618;1.474;2023-12-07T20:26:02;7.70;1.00
31975;DHT22;18500;43.618;1.474;2023-12-07T20:28:29;7.70;1.00
31975;DHT22;18500;43.618;1.474;2023-12-07T20:30:55;7.70;1.00
31975;DHT22;18500;43.618;1.474;2023-12-07T20:33:20;7.70;1.00
31975;DHT22;18500;43.618;1.474;2023-12-07T20:35:46;7.70;1.00
31975;DHT22;18500;43.618;1.474;2023-12-07T20:38:11;7.60;1.00
31975;DHT22;18500;43.618;1.474;2023-12-07T20:40:37;7.60;1.00
31975;DHT22;18500;43.618;1.474;2023-12-07T20:43:03;7.50;1.00
31975;DHT22;18500;43.618;1.474;2023-12-07T20:45:29;7.50;1.00
31975;DHT22;18500;43.618;1.474;2023-12-07T20:47:54;7.40;1.00
31975;DHT22;18500;43.618;1.474;2023-12-07T20:50:21;7.20;1.00
31975;DHT22;18500;43.618;1.474;2023-12-07T20:52:48;7.20;1.00
31975;DHT22;18500;43.618;1.474;2023-12-07T20:55:13;7.20;1.00
31975;DHT22;18500;43.618;1.474;2023-12-07T20:57:43;7.20;1.00
31975;DHT22;18500;43.618;1.474;2023-12-07T21:00:08;7.20;1.00
31975;DHT22;18500;43.618;1.474;2023-12-07T21:02:35;7.20;1.00
31975;DHT22;18500;43.618;1.474;2023-12-07T21:05:00;7.10;1.00
31975;DHT22;18500;43.618;1.474;2023-12-07T21:07:26;7.20;1.00
31975;DHT22;18500;43.618;1.474;2023-12-07T21:09:52;7.10;1.00
31975;DHT22;18500;43.618;1.474;2023-12-07T21:12:17;7.10;1.00
31975;DHT22;18500;43.618;1.474;2023-12-07T21:14:43;7.10;1.00
31975;DHT22;18500;43.618;1.474;2023-12-07T21:17:09;7.10;1.00
31975;DHT22;18500;43.618;1.474;2023-12-07T21:19:39;7.10;1.00
31975;DHT22;18500;43.618;1.474;2023-12-07T21:22:04;7.00;1.00
31975;DHT22;18500;43.618;1.474;2023-12-07T21:24:32;7.10;1.00
31975;DHT22;18500;43.618;1.474;2023-12-07T21:26:58;7.00;1.00
31975;DHT22;18500;43.618;1.474;2023-12-07T21:29:24;6.90;1.00
31975;DHT22;18500;43.618;1.474;2023-12-07T21:31:50;7.00;1.00
31975;DHT22;18500;43.618;1.474;2023-12-07T21:34:15;6.90;1.00
31975;DHT22;18500;43.618;1.474;2023-12-07T21:36:43;6.90;1.00
31975;DHT22;18500;43.618;1.474;2023-12-07T21:39:09;6.90;1.00
31975;DHT22;18500;43.618;1.474;2023-12-07T21:41:35;6.90;1.00
31975;DHT22;18500;43.618;1.474;2023-12-07T21:44:01;6.90;1.00
31975;DHT22;18500;43.618;1.474;2023-12-07T21:46:26;6.80;1.00
31975;DHT22;18500;43.618;1.474;2023-12-07T21:48:52;6.80;1.00
31975;DHT22;18500;43.618;1.474;2023-12-07T21:51:18;6.80;1.00
31975;DHT22;18500;43.618;1.474;2023-12-07T21:53:43;6.60;1.00
31975;DHT22;18500;43.618;1.474;2023-12-07T21:56:11;6.50;1.00
31975;DHT22;18500;43.618;1.474;2023-12-07T21:58:37;6.50;1.00
31975;DHT22;18500;43.618;1.474;2023-12-07T22:01:03;6.40;1.00
31975;DHT22;18500;43.618;1.474;2023-12-07T22:03:28;6.30;1.00
31975;DHT22;18500;43.618;1.474;2023-12-07T22:05:54;6.40;1.00
31975;DHT22;18500;43.618;1.474;2023-12-07T22:08:20;6.40;1.00
31975;DHT22;18500;43.618;1.474;2023-12-07T22:10:46;6.40;1.00
